KMSS

Massena International-Richards Field Airport

Massena, New York, USA
METAR KMSS 201853Z AUTO 25016G21KT 10SM FEW055 SCT070 14/02 A2953 RMK AO2 PK WND 24027/1837 SLP000 T01390017
Observed Flight Rules
Oct-20 @ 18:53 UTC (40 minutes ago) Visual Flight Rules
Wind Visibility Clouds
250° at 16 knots
 Gusting to 21 knots
10 miles
  • Few at 5,500' AGL
  • Scattered at 7,000' AGL
Temperatures Readings
Current 14°C / 57°F
Dewpoint 2°C / 36°F
Humidity 44%
Altimeter 29.53" Hg
Pressure 1000 hPa
Elevation 66
METAR KMSS 201853Z AUTO 25016G21KT 10SM FEW055 SCT070 14/02 A2953 RMK AO2 PK WND 24027/1837 SLP000 T01390017
Observed Flight Rules
Oct-20 @ 18:53 UTC
(40 minutes ago)
VFR
Wind Visibility
250° at 16 knots
 Gusting to 21 knots
10 miles
Clouds
  • Few at 5,500' AGL
  • Scattered at 7,000' AGL
Temperature Dewpoint
14°C / 57°F 2°C / 36°F
Humidity Altimeter Pressure
44% 29.53" Hg 1000 hPa